createdAt,value
2022-10-22T00:01:27.541Z,3.60
2022-10-22T00:03:56.444Z,4.07
2022-10-22T00:06:23.868Z,3.88
2022-10-22T00:08:53.738Z,3.70
2022-10-22T00:11:21.754Z,3.80
2022-10-22T00:13:53.379Z,4.15
2022-10-22T00:16:41.086Z,4.80
2022-10-22T00:19:10.710Z,4.28
2022-10-22T00:21:41.629Z,3.67
2022-10-22T00:24:22.123Z,3.00
2022-10-22T00:26:58.783Z,3.42
2022-10-22T00:29:26.172Z,3.20
2022-10-22T00:31:56.741Z,4.45
2022-10-22T00:34:25.108Z,3.42
2022-10-22T00:37:02.396Z,4.15
2022-10-22T00:39:30.262Z,3.70
2022-10-22T00:42:00.717Z,3.92
2022-10-22T00:45:05.723Z,3.97
2022-10-22T00:47:59.968Z,4.00
2022-10-22T00:50:52.788Z,4.38
2022-10-22T00:53:24.157Z,3.97
2022-10-22T00:55:54.637Z,3.65
2022-10-22T00:58:27.556Z,4.28
2022-10-22T01:00:56.876Z,3.80
2022-10-22T01:03:24.617Z,3.80
2022-10-22T01:06:02.505Z,4.18
2022-10-22T01:08:50.490Z,4.13
2022-10-22T01:11:31.231Z,3.80
2022-10-22T01:14:15.905Z,3.50
2022-10-22T01:17:08.667Z,3.83
2022-10-22T01:20:07.430Z,4.22
2022-10-22T01:22:46.868Z,4.05
2022-10-22T01:25:21.696Z,4.85
2022-10-22T01:28:10.924Z,5.03
2022-10-22T01:30:40.888Z,5.20
2022-10-22T01:33:13.777Z,4.53
2022-10-22T01:35:47.750Z,4.30
2022-10-22T01:38:19.736Z,4.80
2022-10-22T01:40:51.510Z,4.40
2022-10-22T01:43:23.513Z,4.57
2022-10-22T01:45:54.455Z,4.88
2022-10-22T01:49:01.300Z,5.13
2022-10-22T01:51:47.040Z,4.43
2022-10-22T01:54:23.440Z,4.57
2022-10-22T01:57:19.315Z,4.40
2022-10-22T02:00:17.674Z,4.88
2022-10-22T02:03:05.985Z,5.40
2022-10-22T02:05:46.353Z,5.93
2022-10-22T02:08:30.794Z,4.93
2022-10-22T02:11:00.755Z,4.93
2022-10-22T02:13:35.201Z,5.78
2022-10-22T02:16:04.786Z,6.38
2022-10-22T02:18:40.056Z,5.93
2022-10-22T02:21:11.259Z,5.65
2022-10-22T02:23:43.447Z,5.72
2022-10-22T02:26:19.915Z,5.68
2022-10-22T02:29:27.945Z,5.45
2022-10-22T02:32:03.319Z,5.57
2022-10-22T02:34:32.788Z,6.90
2022-10-22T02:37:02.872Z,5.65
2022-10-22T02:39:32.186Z,5.85
2022-10-22T02:42:03.277Z,5.50
2022-10-22T02:44:33.559Z,6.82
2022-10-22T02:47:01.032Z,6.10
2022-10-22T02:49:28.756Z,6.05
2022-10-22T02:51:56.310Z,6.70
2022-10-22T02:54:26.944Z,6.03
2022-10-22T02:56:54.224Z,6.30
2022-10-22T02:59:21.686Z,6.32
2022-10-22T03:01:53.523Z,6.85
2022-10-22T03:04:20.975Z,7.22
2022-10-22T03:06:49.276Z,6.30
2022-10-22T03:09:21.323Z,7.50
2022-10-22T03:11:54.043Z,6.53
2022-10-22T03:14:22.519Z,5.63
2022-10-22T03:16:50.774Z,5.43
2022-10-22T03:19:18.089Z,4.75
2022-10-22T03:21:53.863Z,5.20
2022-10-22T03:24:29.344Z,4.70
2022-10-22T03:26:56.804Z,4.88
2022-10-22T03:29:27.053Z,4.88
2022-10-22T03:32:15.755Z,5.35
2022-10-22T03:34:50.549Z,5.50
2022-10-22T03:37:57.943Z,5.15
2022-10-22T03:40:59.034Z,4.65
2022-10-22T03:44:19.031Z,4.70
2022-10-22T03:47:32.112Z,4.88
2022-10-22T03:50:31.123Z,4.78
2022-10-22T03:54:04.548Z,4.47
2022-10-22T03:56:14.375Z,5.47
2022-10-22T03:59:02.247Z,5.35
2022-10-22T04:01:34.286Z,4.50
2022-10-22T04:06:33.346Z,4.85
2022-10-22T04:09:05.538Z,4.65
2022-10-22T04:11:36.934Z,5.00
2022-10-22T04:14:04.165Z,5.15
2022-10-22T04:16:32.942Z,4.93
2022-10-22T04:19:00.294Z,4.70
2022-10-22T04:21:28.984Z,5.15
2022-10-22T04:23:56.339Z,5.55
2022-10-22T04:26:29.178Z,6.05
2022-10-22T04:28:56.468Z,5.93
2022-10-22T04:31:26.624Z,6.00
2022-10-22T04:34:00.119Z,5.78
2022-10-22T04:36:32.745Z,6.38
2022-10-22T04:39:01.764Z,5.43
2022-10-22T04:41:38.923Z,6.00
2022-10-22T04:44:12.269Z,5.53
2022-10-22T04:46:46.029Z,6.93
2022-10-22T04:49:13.900Z,6.20
2022-10-22T04:52:32.647Z,6.32
2022-10-22T04:55:01.115Z,5.97
2022-10-22T04:57:32.562Z,5.70
2022-10-22T04:59:59.947Z,5.63
2022-10-22T05:02:29.840Z,5.45
2022-10-22T05:04:57.352Z,6.10
2022-10-22T05:07:26.039Z,6.22
2022-10-22T05:09:56.592Z,5.68
2022-10-22T05:12:26.338Z,6.80
2022-10-22T05:14:56.987Z,6.35
2022-10-22T05:17:24.608Z,7.15
2022-10-22T05:19:55.266Z,6.35
2022-10-22T05:23:14.136Z,6.75
2022-10-22T05:25:41.503Z,6.13
2022-10-22T05:28:08.872Z,7.13
2022-10-22T05:35:20.376Z,7.00
2022-10-22T05:37:47.642Z,6.45
2022-10-22T05:40:26.373Z,7.10
2022-10-22T05:42:55.603Z,5.95
2022-10-22T05:45:22.875Z,6.55
2022-10-22T05:47:50.326Z,6.30
2022-10-22T05:55:09.325Z,6.25
2022-10-22T06:00:42.812Z,6.47
2022-10-22T06:03:10.454Z,7.20
2022-10-22T06:05:41.448Z,6.13
2022-10-22T06:08:41.171Z,5.82
2022-10-22T06:11:25.662Z,5.95
2022-10-22T06:14:05.858Z,5.80
2022-10-22T06:16:36.759Z,5.95
2022-10-22T06:19:06.725Z,6.35
2022-10-22T06:21:41.044Z,5.88
2022-10-22T06:24:11.737Z,5.65
2022-10-22T06:26:49.461Z,5.57
2022-10-22T06:29:16.864Z,6.10
2022-10-22T06:31:48.147Z,5.70
2022-10-22T06:34:19.122Z,5.15
2022-10-22T06:36:50.311Z,6.05
2022-10-22T06:39:18.519Z,6.45
2022-10-22T06:42:59.412Z,5.70
2022-10-22T06:45:33.295Z,5.18
2022-10-22T06:48:03.957Z,5.22
2022-10-22T06:50:34.700Z,5.53
2022-10-22T06:53:12.719Z,4.47
2022-10-22T06:56:23.255Z,4.47
2022-10-22T06:58:57.989Z,4.95
2022-10-22T07:01:35.593Z,4.10
2022-10-22T07:04:19.690Z,4.00
2022-10-22T07:10:30.704Z,2.85
2022-10-22T07:13:00.597Z,3.70
2022-10-22T07:17:59.403Z,2.75
2022-10-22T07:23:19.946Z,2.72
2022-10-22T07:28:30.158Z,4.00
2022-10-22T07:31:21.611Z,3.88
2022-10-22T07:37:28.757Z,4.13
2022-10-22T07:40:16.739Z,4.18
2022-10-22T07:43:26.991Z,3.47
2022-10-22T07:46:24.185Z,3.53
2022-10-22T07:48:57.150Z,3.33
2022-10-22T07:51:29.675Z,3.05
2022-10-22T07:56:33.545Z,2.17
2022-10-22T07:59:05.826Z,2.53
2022-10-22T08:01:42.252Z,2.28
2022-10-22T08:04:14.391Z,2.80
2022-10-22T08:06:47.286Z,2.55
2022-10-22T08:09:18.361Z,2.22
2022-10-22T08:11:49.344Z,2.60
2022-10-22T08:14:18.284Z,2.78
2022-10-22T08:16:46.792Z,2.90
2022-10-22T08:19:32.775Z,2.95
2022-10-22T08:22:13.471Z,3.05
2022-10-22T08:24:49.317Z,3.05
2022-10-22T08:27:17.181Z,3.00
2022-10-22T08:30:16.673Z,3.10
2022-10-22T08:33:28.173Z,3.67
2022-10-22T08:35:58.175Z,3.70
2022-10-22T08:38:28.414Z,3.92
2022-10-22T08:41:08.643Z,3.97
2022-10-22T08:44:00.944Z,3.22
2022-10-22T08:46:43.598Z,4.03
2022-10-22T08:49:23.690Z,3.65
2022-10-22T08:52:08.929Z,4.82
2022-10-22T08:54:57.552Z,3.28
2022-10-22T08:57:52.461Z,4.15
2022-10-22T09:00:38.958Z,3.83
2022-10-22T09:03:15.092Z,3.58
2022-10-22T09:06:14.260Z,3.00
2022-10-22T09:08:44.433Z,3.53
2022-10-22T09:11:19.500Z,3.45
2022-10-22T09:13:48.316Z,3.47
2022-10-22T09:16:18.295Z,3.45
2022-10-22T09:19:03.687Z,3.20
2022-10-22T09:24:44.882Z,3.28
2022-10-22T09:27:32.009Z,2.85
2022-10-22T09:39:01.698Z,3.90
2022-10-22T10:38:29.872Z,3.05
2022-10-22T10:42:50.049Z,2.47
2022-10-22T11:13:05.600Z,2.97
2022-10-22T11:15:45.303Z,3.65
2022-10-22T11:20:25.928Z,3.22
2022-10-22T11:23:18.094Z,3.83
2022-10-22T11:25:28.871Z,3.72
2022-10-22T11:32:30.675Z,2.78
2022-10-22T11:38:51.430Z,3.67
2022-10-22T11:42:06.647Z,2.45
2022-10-22T11:49:55.881Z,2.55
2022-10-22T11:52:53.055Z,3.20
2022-10-22T11:57:15.451Z,2.60
2022-10-22T12:00:33.856Z,3.13
2022-10-22T12:08:03.850Z,2.60
2022-10-22T12:20:07.149Z,3.40
2022-10-22T12:38:19.879Z,2.85
2022-10-22T12:41:05.352Z,3.03
2022-10-22T12:43:35.648Z,2.85
2022-10-22T12:46:11.149Z,3.75
2022-10-22T12:49:03.630Z,2.72
2022-10-22T12:51:55.566Z,3.00
2022-10-22T12:55:02.786Z,2.50
2022-10-22T12:57:36.456Z,2.63
2022-10-22T13:02:31.914Z,2.53
2022-10-22T13:05:27.477Z,2.78
2022-10-22T13:09:02.408Z,2.33
2022-10-22T13:11:48.918Z,2.17
2022-10-22T13:14:35.642Z,3.17
2022-10-22T13:18:06.682Z,1.50
2022-10-22T13:22:14.199Z,1.77
2022-10-22T19:48:38.335Z,5.28
2022-10-22T19:51:10.929Z,5.90
2022-10-22T19:53:45.184Z,5.55
2022-10-22T19:56:30.390Z,5.95
2022-10-22T19:58:59.643Z,6.50
2022-10-22T20:01:29.603Z,5.53
2022-10-22T20:03:58.334Z,5.70
2022-10-22T20:06:26.515Z,5.30
2022-10-22T20:08:56.212Z,6.15
2022-10-22T20:11:27.733Z,6.78
2022-10-22T20:13:58.360Z,4.95
2022-10-22T20:16:31.075Z,6.20
2022-10-22T20:19:04.976Z,6.50
2022-10-22T20:21:35.413Z,6.40
2022-10-22T20:24:05.320Z,6.57
2022-10-22T20:26:32.852Z,6.00
2022-10-22T20:29:03.158Z,5.40
2022-10-22T20:31:31.439Z,6.28
2022-10-22T20:34:02.824Z,6.80
2022-10-22T20:36:32.210Z,6.63
2022-10-22T20:39:02.656Z,5.22
2022-10-22T20:41:36.434Z,5.35
2022-10-22T20:44:06.837Z,6.13
2022-10-22T20:46:35.112Z,5.97
2022-10-22T20:49:06.491Z,4.95
2022-10-22T20:51:47.200Z,6.88
2022-10-22T20:54:23.249Z,5.38
2022-10-22T20:56:59.396Z,6.30
2022-10-22T20:59:35.241Z,5.38
2022-10-22T21:02:13.854Z,6.22
2022-10-22T21:05:02.038Z,5.15
2022-10-22T21:07:29.718Z,6.35
2022-10-22T21:10:06.851Z,6.97
2022-10-22T21:16:26.001Z,5.63
2022-10-22T21:19:01.800Z,6.47
2022-10-22T21:21:30.776Z,6.00
2022-10-22T21:23:58.331Z,5.53
2022-10-22T21:26:28.447Z,6.07
2022-10-22T21:29:00.451Z,6.80
2022-10-22T21:31:28.220Z,6.65
2022-10-22T21:33:59.181Z,6.35
2022-10-22T21:36:26.928Z,6.53
2022-10-22T21:38:55.771Z,6.40
2022-10-22T21:41:55.292Z,5.80
2022-10-22T21:44:22.726Z,5.68
2022-10-22T21:46:59.086Z,5.70
2022-10-22T21:49:29.284Z,5.65
2022-10-22T21:52:01.018Z,4.43
2022-10-22T21:54:37.715Z,5.47
2022-10-22T21:57:13.028Z,5.47
2022-10-22T21:59:50.180Z,5.45
2022-10-22T22:02:22.359Z,6.38
2022-10-22T22:04:56.136Z,6.20
2022-10-22T22:07:23.869Z,5.22
2022-10-22T22:09:54.402Z,6.05
2022-10-22T22:12:25.681Z,5.97
2022-10-22T22:14:56.752Z,5.75
2022-10-22T22:17:29.172Z,5.15
2022-10-22T22:19:56.995Z,5.63
2022-10-22T22:22:26.649Z,5.22
2022-10-22T22:24:57.104Z,4.85
2022-10-22T22:27:35.714Z,5.25
2022-10-22T22:30:04.311Z,5.75
2022-10-22T22:33:32.281Z,5.28
2022-10-22T22:36:05.802Z,4.72
2022-10-22T22:38:35.588Z,5.25
2022-10-22T22:41:05.615Z,5.28
2022-10-22T22:43:33.568Z,4.97
2022-10-22T22:46:08.016Z,5.45
2022-10-22T22:48:40.899Z,6.07
2022-10-22T22:51:08.801Z,4.90
2022-10-22T22:53:39.342Z,5.53
2022-10-22T22:56:15.652Z,5.20
2022-10-22T22:58:47.316Z,5.05
2022-10-22T23:01:31.302Z,5.82
2022-10-22T23:04:27.039Z,5.47
2022-10-22T23:07:03.682Z,5.38
2022-10-22T23:09:33.737Z,5.88
2022-10-22T23:13:24.711Z,5.55
2022-10-22T23:15:54.560Z,5.72
2022-10-22T23:18:24.822Z,5.28
2022-10-22T23:20:56.302Z,6.03
2022-10-22T23:23:24.891Z,5.65
2022-10-22T23:28:27.135Z,6.00
2022-10-22T23:31:06.618Z,5.30
2022-10-22T23:36:07.119Z,6.05
2022-10-22T23:38:46.244Z,5.00
2022-10-22T23:41:17.214Z,6.25
2022-10-22T23:43:45.038Z,5.80
2022-10-22T23:46:18.697Z,5.60
2022-10-22T23:48:51.076Z,5.40
2022-10-22T23:51:25.125Z,5.90
2022-10-22T23:54:02.205Z,5.25
2022-10-22T23:56:32.633Z,5.75
2022-10-22T23:59:02.576Z,6.43
